Time;durP1;ratioP1;P1;durP2;ratioP2;P2;SDS_P1;SDS_P2;PMS_P1;PMS_P2;Temp;Humidity;BMP_temperature;BMP_pressure;BME280_temperature;BME280_humidity;BME280_pressure;Samples;Min_cycle;Max_cycle;Signal;HPM_P1;HPM_P2
2024/02/11 00:01:09;;;;;;;11.73;8.77;;;;;;;3.21;100.00;94070.94;5062483;28;20024;-68
2024/02/11 00:03:37;;;;;;;14.43;11.77;;;;;;;3.29;100.00;94073.69;5064575;28;20039;-68
2024/02/11 00:06:04;;;;;;;7.47;6.10;;;;;;;3.31;100.00;94079.56;5068648;28;20036;-68
2024/02/11 00:08:32;;;;;;;7.18;6.10;;;;;;;3.31;100.00;94074.34;5062537;28;20090;-68
2024/02/11 00:10:58;;;;;;;28.08;24.80;;;;;;;3.29;100.00;94073.69;5065111;28;20025;-68
2024/02/11 00:13:23;;;;;;;70.22;41.35;;;;;;;3.31;100.00;94071.75;5068241;28;20071;-68
2024/02/11 00:15:49;;;;;;;14.52;9.77;;;;;;;3.28;100.00;94072.03;5067540;28;20043;-68
2024/02/11 00:18:15;;;;;;;14.23;8.10;;;;;;;3.30;100.00;94062.31;5072623;28;20033;-68
2024/02/11 00:20:41;;;;;;;8.18;6.20;;;;;;;3.25;100.00;94062.72;5074272;28;20048;-68
2024/02/11 00:23:06;;;;;;;4.90;4.38;;;;;;;3.21;100.00;94058.75;5075214;28;20029;-69
2024/02/11 00:25:32;;;;;;;4.30;3.95;;;;;;;3.21;100.00;94055.34;5072140;28;20508;-68
2024/02/11 00:27:59;;;;;;;4.18;3.78;;;;;;;3.18;100.00;94059.03;5072269;28;20025;-69
2024/02/11 00:30:28;;;;;;;5.03;4.63;;;;;;;3.17;100.00;94054.78;5066862;28;20091;-68
2024/02/11 00:32:57;;;;;;;4.18;3.88;;;;;;;3.13;100.00;94053.41;5073972;28;20041;-68
2024/02/11 00:35:26;;;;;;;4.80;4.40;;;;;;;3.21;100.00;94061.34;5076283;28;20039;-68
2024/02/11 00:37:52;;;;;;;5.90;5.35;;;;;;;3.45;100.00;94054.91;5070674;28;20115;-68
2024/02/11 00:40:18;;;;;;;9.45;8.55;;;;;;;3.40;100.00;94057.91;5079647;28;20064;-68
2024/02/11 00:42:45;;;;;;;13.05;7.60;;;;;;;3.44;100.00;94064.50;5077676;28;20052;-67
2024/02/11 00:45:14;;;;;;;10.77;7.22;;;;;;;3.39;100.00;94063.28;5078970;28;20218;-67
2024/02/11 00:47:41;;;;;;;7.03;5.72;;;;;;;3.27;100.00;94065.19;5073864;27;20460;-67
2024/02/11 00:50:07;;;;;;;4.90;4.35;;;;;;;3.27;100.00;94073.00;5068513;28;20086;-67
2024/02/11 00:52:33;;;;;;;4.93;4.53;;;;;;;3.22;100.00;94070.78;5076721;28;20020;-67
2024/02/11 00:54:59;;;;;;;4.45;4.05;;;;;;;3.18;100.00;94077.22;5071722;28;20100;-67
2024/02/11 00:57:25;;;;;;;5.43;4.85;;;;;;;3.12;100.00;94073.38;5071445;28;20032;-66
2024/02/11 00:59:50;;;;;;;5.57;5.03;;;;;;;3.13;100.00;94074.22;5071738;28;20033;-67
2024/02/11 01:02:15;;;;;;;5.72;5.22;;;;;;;3.12;100.00;94080.38;5073328;28;20036;-69
2024/02/11 01:04:41;;;;;;;6.05;5.55;;;;;;;3.13;100.00;94080.22;5071443;28;20039;-68
2024/02/11 01:07:07;;;;;;;7.35;5.55;;;;;;;3.21;100.00;94083.94;5077346;28;20506;-69
2024/02/11 01:09:33;;;;;;;6.05;5.45;;;;;;;3.23;100.00;94084.63;5074197;28;20032;-69
2024/02/11 01:11:58;;;;;;;5.07;4.65;;;;;;;3.18;100.00;94090.25;5067659;28;20025;-68
2024/02/11 01:14:24;;;;;;;4.13;3.83;;;;;;;3.22;100.00;94094.19;5068553;28;20059;-68
2024/02/11 01:16:49;;;;;;;4.65;4.35;;;;;;;3.27;100.00;94097.22;5066026;28;20024;-69
2024/02/11 01:19:15;;;;;;;5.20;4.80;;;;;;;3.33;100.00;94102.84;5070106;28;20020;-68
2024/02/11 01:21:40;;;;;;;4.43;4.03;;;;;;;3.40;100.00;94111.75;5072056;28;20033;-68
2024/02/11 01:24:05;;;;;;;4.30;3.78;;;;;;;3.40;100.00;94106.53;5070672;28;20075;-68
2024/02/11 01:26:31;;;;;;;4.72;4.28;;;;;;;3.43;100.00;94106.25;5064136;28;20079;-68
2024/02/11 01:28:56;;;;;;;4.45;4.15;;;;;;;3.45;100.00;94112.13;5072072;28;20031;-68
2024/02/11 01:31:22;;;;;;;4.25;3.95;;;;;;;3.37;100.00;94110.22;5076764;28;20044;-69
2024/02/11 01:33:49;;;;;;;3.55;3.35;;;;;;;3.32;100.00;94107.22;5069889;28;20056;-68
2024/02/11 01:36:15;;;;;;;3.33;3.13;;;;;;;3.31;100.00;94108.19;5071353;28;20106;-68
2024/02/11 01:38:40;;;;;;;4.30;4.00;;;;;;;3.27;100.00;94107.63;5070800;28;20044;-68
2024/02/11 01:41:06;;;;;;;3.58;3.38;;;;;;;3.35;100.00;94114.75;5071316;28;20020;-68
2024/02/11 01:43:33;;;;;;;4.60;4.13;;;;;;;3.41;100.00;94108.19;5071947;28;20619;-67
2024/02/11 01:45:58;;;;;;;6.07;4.50;;;;;;;3.43;100.00;94112.28;5076678;28;20024;-68
2024/02/11 01:48:24;;;;;;;14.60;8.73;;;;;;;3.61;100.00;94113.38;5073624;28;20490;-68
2024/02/11 01:50:52;;;;;;;15.15;9.65;;;;;;;3.53;100.00;94114.88;5071396;28;20410;-69
2024/02/11 01:53:20;;;;;;;14.85;10.02;;;;;;;3.45;100.00;94112.13;5070070;28;20106;-68
2024/02/11 01:55:46;;;;;;;16.95;11.00;;;;;;;3.33;100.00;94121.06;5067994;28;20083;-68
2024/02/11 01:58:14;;;;;;;18.85;12.50;;;;;;;3.28;100.00;94124.06;5074129;28;20063;-68
2024/02/11 02:00:41;;;;;;;10.80;8.30;;;;;;;3.54;100.00;94129.56;5070434;28;20043;-68
2024/02/11 02:03:07;;;;;;;11.57;5.43;;;;;;;3.62;100.00;94126.25;5071264;28;20056;-68
2024/02/11 02:05:33;;;;;;;9.75;6.18;;;;;;;3.47;100.00;94123.22;5067431;28;20028;-68
2024/02/11 02:07:59;;;;;;;9.00;7.05;;;;;;;3.28;100.00;94131.84;5074851;28;20037;-68
2024/02/11 02:10:25;;;;;;;7.18;5.57;;;;;;;3.32;100.00;94125.41;5068778;28;20032;-69
2024/02/11 02:12:50;;;;;;;5.20;4.70;;;;;;;3.32;100.00;94127.22;5067800;28;20558;-68
2024/02/11 02:15:16;;;;;;;5.18;4.57;;;;;;;3.28;100.00;94124.06;5072637;28;20074;-68
2024/02/11 02:17:48;;;;;;;8.38;5.25;;;;;;;3.26;100.00;94121.56;5072615;28;20032;-68
2024/02/11 02:20:14;;;;;;;6.57;5.22;;;;;;;3.22;100.00;94125.41;5075292;28;20024;-68
2024/02/11 02:22:41;;;;;;;5.30;4.68;;;;;;;3.19;100.00;94125.69;5072343;28;20025;-69
2024/02/11 02:25:07;;;;;;;6.30;5.18;;;;;;;3.23;100.00;94118.44;5072047;28;20028;-68
2024/02/11 02:27:32;;;;;;;5.25;4.75;;;;;;;3.21;100.00;94115.16;5066741;28;20028;-68
2024/02/11 02:29:57;;;;;;;4.90;4.50;;;;;;;3.17;100.00;94116.38;5065698;28;20033;-69
2024/02/11 02:32:23;;;;;;;6.50;5.88;;;;;;;3.19;100.00;94112.69;5067188;28;20021;-69
2024/02/11 02:34:50;;;;;;;6.63;5.95;;;;;;;3.24;100.00;94117.50;5067551;28;20086;-68
2024/02/11 02:37:15;;;;;;;7.47;6.30;;;;;;;3.26;100.00;94105.97;5067820;28;20101;-69
2024/02/11 02:39:41;;;;;;;8.48;7.68;;;;;;;3.23;100.00;94114.06;5064218;28;20029;-69
2024/02/11 02:42:07;;;;;;;7.50;6.80;;;;;;;3.23;100.00;94114.06;5071576;28;20033;-68
2024/02/11 02:44:32;;;;;;;8.07;7.28;;;;;;;3.28;100.00;94111.06;5066298;28;20056;-68
2024/02/11 02:46:58;;;;;;;8.48;7.65;;;;;;;3.23;100.00;94110.66;5077067;28;20013;-69
2024/02/11 02:49:23;;;;;;;8.60;7.90;;;;;;;3.26;100.00;94097.38;5072716;28;20108;-69
2024/02/11 02:51:49;;;;;;;9.27;8.25;;;;;;;3.20;100.00;94113.50;5068993;28;20074;-68
2024/02/11 02:54:14;;;;;;;12.00;9.07;;;;;;;3.15;100.00;94103.50;5070589;28;20537;-69
2024/02/11 02:56:40;;;;;;;10.38;9.40;;;;;;;3.21;100.00;94115.16;5070931;28;20039;-68
2024/02/11 02:59:08;;;;;;;11.95;10.85;;;;;;;3.24;100.00;94120.91;5072379;28;20025;-68
2024/02/11 03:01:38;;;;;;;10.48;9.52;;;;;;;3.22;100.00;94111.59;5069858;28;20021;-68
2024/02/11 03:04:05;;;;;;;12.50;11.50;;;;;;;3.19;100.00;94117.88;5064423;28;20648;-68
2024/02/11 03:06:33;;;;;;;11.88;10.85;;;;;;;3.21;100.00;94118.56;5072988;28;20331;-68
2024/02/11 03:08:58;;;;;;;11.93;10.93;;;;;;;3.20;100.00;94116.94;5075255;28;20480;-68
2024/02/11 03:11:24;;;;;;;12.02;10.93;;;;;;;3.22;100.00;94112.41;5071141;28;20107;-68
2024/02/11 03:13:49;;;;;;;12.15;11.10;;;;;;;3.25;100.00;94113.94;5075117;28;20461;-68
2024/02/11 03:16:15;;;;;;;12.45;11.23;;;;;;;3.25;100.00;94108.72;5072167;28;20539;-68
2024/02/11 03:18:42;;;;;;;13.13;11.88;;;;;;;3.26;100.00;94110.38;5069779;28;20051;-68
2024/02/11 03:21:08;;;;;;;13.77;12.57;;;;;;;3.21;100.00;94109.97;5071915;28;20012;-67
2024/02/11 03:23:35;;;;;;;14.13;12.73;;;;;;;3.23;100.00;94105.44;5071520;28;20046;-68
2024/02/11 03:26:01;;;;;;;12.80;11.70;;;;;;;3.20;100.00;94106.53;5073435;28;20020;-68
2024/02/11 03:28:27;;;;;;;18.95;17.33;;;;;;;3.20;100.00;94109.13;5073895;28;20151;-68
2024/02/11 03:30:53;;;;;;;13.52;12.27;;;;;;;3.24;100.00;94105.28;5070004;28;20638;-68
2024/02/11 03:33:18;;;;;;;13.00;11.75;;;;;;;3.26;100.00;94110.38;5062662;28;20083;-67
2024/02/11 03:35:45;;;;;;;12.52;11.45;;;;;;;3.15;100.00;94112.13;5070410;28;20032;-67
2024/02/11 03:38:10;;;;;;;13.13;11.90;;;;;;;3.10;100.00;94106.50;5069195;28;20032;-67
2024/02/11 03:40:36;;;;;;;11.85;10.77;;;;;;;3.05;100.00;94100.91;5074202;28;20036;-67
2024/02/11 03:43:01;;;;;;;12.95;11.85;;;;;;;3.04;100.00;94104.47;5071792;28;20061;-68
2024/02/11 03:45:27;;;;;;;13.20;12.07;;;;;;;3.01;100.00;94102.13;5070831;28;20029;-67
2024/02/11 03:47:53;;;;;;;12.70;11.65;;;;;;;3.01;100.00;94094.34;5070012;28;20034;-68
2024/02/11 03:50:19;;;;;;;12.63;11.55;;;;;;;2.97;100.00;94095.53;5078284;28;20032;-68
2024/02/11 03:52:45;;;;;;;16.02;14.48;;;;;;;2.95;100.00;94082.69;5065409;28;20025;-67
2024/02/11 03:55:11;;;;;;;13.98;12.57;;;;;;;2.88;100.00;94091.16;5071736;28;20048;-68
2024/02/11 03:57:40;;;;;;;13.02;11.82;;;;;;;2.89;100.00;94085.00;5070342;28;20090;-67
2024/02/11 04:00:14;;;;;;;13.70;12.60;;;;;;;2.89;100.00;94088.44;5070576;28;20024;-68
2024/02/11 04:02:39;;;;;;;14.07;12.88;;;;;;;2.86;100.00;94083.47;5069077;28;20481;-68
2024/02/11 04:05:05;;;;;;;13.65;12.45;;;;;;;2.82;100.00;94093.34;5079264;28;20025;-68
2024/02/11 04:07:31;;;;;;;15.77;14.02;;;;;;;2.77;100.00;94102.47;5078693;28;20046;-67
2024/02/11 04:10:02;;;;;;;12.20;10.90;;;;;;;2.72;100.00;94097.69;5077889;28;20032;-68
2024/02/11 04:12:27;;;;;;;8.85;8.13;;;;;;;2.73;100.00;94099.31;5070958;28;20588;-67
2024/02/11 04:14:54;;;;;;;8.50;7.80;;;;;;;2.71;100.00;94096.88;5075645;28;20090;-68
2024/02/11 04:17:20;;;;;;;9.68;8.88;;;;;;;2.67;100.00;94097.25;5074943;28;20158;-68
2024/02/11 04:19:46;;;;;;;8.95;8.15;;;;;;;2.71;100.00;94101.22;5073745;28;20036;-68
2024/02/11 04:22:14;;;;;;;9.20;8.50;;;;;;;2.70;100.00;94095.22;5075719;28;20392;-68
2024/02/11 04:24:45;;;;;;;9.88;9.10;;;;;;;2.72;100.00;94092.47;5072715;28;20040;-68
2024/02/11 04:27:14;;;;;;;9.88;9.07;;;;;;;2.70;100.00;94091.78;5078116;28;20600;-68
2024/02/11 04:29:43;;;;;;;9.73;8.88;;;;;;;2.82;100.00;94092.50;5075185;28;20553;-68
2024/02/11 04:32:11;;;;;;;8.05;7.35;;;;;;;2.78;100.00;94102.38;5072869;28;20421;-68
2024/02/11 04:34:41;;;;;;;5.97;5.47;;;;;;;2.68;100.00;94102.34;5071748;28;20016;-68
2024/02/11 04:37:07;;;;;;;6.18;5.65;;;;;;;2.68;100.00;94110.13;5077677;28;20024;-67
2024/02/11 04:39:32;;;;;;;6.25;5.72;;;;;;;2.72;100.00;94106.31;5077999;28;20138;-67
2024/02/11 04:41:58;;;;;;;6.50;5.90;;;;;;;2.69;100.00;94106.59;5077276;28;20127;-67
2024/02/11 04:44:26;;;;;;;6.60;6.10;;;;;;;2.70;100.00;94107.38;5072607;28;20039;-67
2024/02/11 04:46:51;;;;;;;7.15;6.45;;;;;;;2.70;100.00;94107.38;5071382;28;20044;-67
2024/02/11 04:49:17;;;;;;;7.70;6.70;;;;;;;2.71;100.00;94112.47;5075517;28;20028;-67
2024/02/11 04:51:42;;;;;;;7.53;6.93;;;;;;;2.71;100.00;94114.22;5072079;28;20033;-68
2024/02/11 04:54:08;;;;;;;6.97;6.43;;;;;;;2.77;100.00;94115.47;5074282;28;20024;-68
2024/02/11 04:56:34;;;;;;;7.90;6.70;;;;;;;2.84;100.00;94107.03;5073900;28;20039;-68
2024/02/11 04:59:04;;;;;;;11.30;9.15;;;;;;;2.85;100.00;94116.47;5072494;28;20056;-68
2024/02/11 05:01:29;;;;;;;11.27;10.18;;;;;;;2.85;100.00;94128.63;5067502;28;20028;-67
2024/02/11 05:03:54;;;;;;;11.85;10.85;;;;;;;2.82;100.00;94129.72;5075763;28;20059;-67
2024/02/11 05:06:23;;;;;;;12.32;10.50;;;;;;;2.80;100.00;94130.81;5074686;28;20067;-67
2024/02/11 05:08:49;;;;;;;11.20;10.20;;;;;;;2.82;100.00;94131.50;5076157;28;20040;-68
2024/02/11 05:11:15;;;;;;;12.50;11.30;;;;;;;2.85;100.00;94129.47;5073636;28;20032;-67
2024/02/11 05:13:43;;;;;;;13.63;12.38;;;;;;;2.81;100.00;94133.28;5072292;28;20566;-68
2024/02/11 05:16:14;;;;;;;14.30;11.93;;;;;;;2.83;100.00;94136.56;5075372;28;20504;-68
2024/02/11 05:18:42;;;;;;;13.65;12.40;;;;;;;2.85;100.00;94134.66;5073026;28;20063;-68
2024/02/11 05:21:09;;;;;;;16.13;12.85;;;;;;;2.89;100.00;94121.38;5073029;28;20496;-68
2024/02/11 05:23:36;;;;;;;14.25;13.05;;;;;;;2.94;100.00;94127.00;5075983;28;20029;-68
2024/02/11 05:26:05;;;;;;;14.63;12.93;;;;;;;2.95;100.00;94133.84;5076925;28;20020;-67
2024/02/11 05:28:34;;;;;;;14.48;13.13;;;;;;;2.99;100.00;94135.25;5075632;28;20032;-67
2024/02/11 05:31:01;;;;;;;14.82;13.38;;;;;;;2.96;100.00;94136.31;5078646;28;20401;-68
2024/02/11 05:33:26;;;;;;;14.82;13.43;;;;;;;2.94;100.00;94142.59;5075717;28;20032;-68
2024/02/11 05:35:52;;;;;;;16.52;14.77;;;;;;;2.94;100.00;94140.00;5073496;28;20099;-68
2024/02/11 05:38:24;;;;;;;17.17;15.48;;;;;;;2.95;100.00;94136.44;5077309;28;20024;-68
2024/02/11 05:40:50;;;;;;;14.93;13.63;;;;;;;2.90;100.00;94146.44;5067981;28;20032;-68
2024/02/11 05:43:16;;;;;;;15.18;13.77;;;;;;;2.90;100.00;94147.28;5069080;28;20045;-68
2024/02/11 05:45:43;;;;;;;15.63;14.10;;;;;;;2.96;100.00;94156.28;5076514;28;20032;-67
2024/02/11 05:48:11;;;;;;;15.05;13.60;;;;;;;3.00;100.00;94161.09;5068610;28;20524;-67
2024/02/11 05:50:36;;;;;;;14.65;13.20;;;;;;;2.94;100.00;94163.41;5071056;28;20507;-68
2024/02/11 05:53:02;;;;;;;15.00;13.60;;;;;;;2.90;100.00;94156.81;5064736;28;20103;-68
2024/02/11 05:55:30;;;;;;;16.48;15.02;;;;;;;2.91;100.00;94159.31;5068828;28;20520;-67
2024/02/11 05:57:55;;;;;;;15.55;14.02;;;;;;;2.94;100.00;94166.00;5073369;28;20111;-67
2024/02/11 06:00:25;;;;;;;15.02;13.65;;;;;;;2.97;100.00;94163.97;5079398;28;20065;-68
2024/02/11 06:02:56;;;;;;;13.45;12.25;;;;;;;2.99;100.00;94169.84;5072605;28;20032;-67
2024/02/11 06:05:22;;;;;;;14.45;13.07;;;;;;;3.01;100.00;94169.75;5075569;28;20039;-67
2024/02/11 06:07:55;;;;;;;13.00;11.80;;;;;;;3.01;100.00;94169.75;5072287;28;20481;-69
2024/02/11 06:10:25;;;;;;;13.32;11.98;;;;;;;3.17;100.00;94176.19;5067792;28;20030;-68
2024/02/11 06:12:51;;;;;;;11.65;10.55;;;;;;;2.98;100.00;94181.22;5072801;28;20029;-67
2024/02/11 06:15:20;;;;;;;11.80;10.23;;;;;;;2.99;100.00;94179.44;5074998;28;20035;-68
2024/02/11 06:17:47;;;;;;;10.88;9.98;;;;;;;3.00;100.00;94181.09;5070300;28;20027;-67
2024/02/11 06:20:14;;;;;;;13.20;11.95;;;;;;;2.99;100.00;94182.06;5071761;28;20107;-68
2024/02/11 06:22:43;;;;;;;12.48;11.27;;;;;;;2.98;100.00;94190.78;5076412;28;20020;-68
2024/02/11 06:25:09;;;;;;;14.05;12.35;;;;;;;2.99;100.00;94188.06;5078088;28;20422;-67
2024/02/11 06:27:38;;;;;;;13.35;12.15;;;;;;;2.97;100.00;94179.56;5074215;28;20031;-67
2024/02/11 06:30:08;;;;;;;15.27;13.68;;;;;;;2.93;100.00;94182.56;5068926;28;20056;-68
2024/02/11 06:32:36;;;;;;;15.43;13.98;;;;;;;2.91;100.00;94187.06;5076254;28;20488;-68
2024/02/11 06:35:03;;;;;;;13.68;12.38;;;;;;;2.90;100.00;94177.63;5075894;28;20020;-68
2024/02/11 06:37:28;;;;;;;15.57;12.18;;;;;;;2.91;100.00;94181.88;5072012;28;20025;-68
2024/02/11 06:39:54;;;;;;;15.30;13.95;;;;;;;2.97;100.00;94181.34;5069618;28;21311;-68
2024/02/11 06:42:19;;;;;;;14.50;13.20;;;;;;;2.96;100.00;94185.72;5073478;28;20127;-68
2024/02/11 06:44:44;;;;;;;14.48;13.07;;;;;;;2.91;100.00;94187.06;5076011;28;20047;-68
2024/02/11 06:47:10;;;;;;;14.88;13.45;;;;;;;2.96;100.00;94190.94;5071781;28;20493;-68
2024/02/11 06:49:38;;;;;;;14.38;13.07;;;;;;;3.00;100.00;94189.69;5069906;28;20048;-68
2024/02/11 06:52:09;;;;;;;16.80;15.20;;;;;;;3.02;100.00;94202.59;5075769;28;20029;-68
2024/02/11 06:54:37;;;;;;;20.90;17.88;;;;;;;2.98;100.00;94201.19;5075557;28;20024;-68
2024/02/11 06:57:03;;;;;;;18.67;16.73;;;;;;;2.92;100.00;94207.75;5080745;28;20051;-68
2024/02/11 06:59:29;;;;;;;19.95;18.05;;;;;;;2.91;100.00;94215.66;5074242;28;20047;-68
2024/02/11 07:01:56;;;;;;;19.48;17.42;;;;;;;2.92;100.00;94219.91;5080637;28;20028;-68
2024/02/11 07:04:23;;;;;;;13.00;11.70;;;;;;;3.19;100.00;94231.50;5068262;27;20040;-68
2024/02/11 07:06:48;;;;;;;13.63;11.80;;;;;;;3.03;100.00;94238.03;5071289;28;20123;-68
2024/02/11 07:09:17;;;;;;;12.80;11.60;;;;;;;2.98;100.00;94242.78;5069409;28;20054;-68
2024/02/11 07:11:43;;;;;;;10.85;9.85;;;;;;;2.98;100.00;94258.38;5075859;28;20106;-69
2024/02/11 07:14:09;;;;;;;11.77;10.68;;;;;;;2.95;100.00;94258.66;5073390;28;20114;-68
2024/02/11 07:16:38;;;;;;;12.73;11.48;;;;;;;2.97;100.00;94264.53;5080221;28;20029;-68
2024/02/11 07:19:04;;;;;;;13.40;12.00;;;;;;;3.00;100.00;94266.91;5078222;28;20965;-68
2024/02/11 07:21:33;;;;;;;13.50;12.20;;;;;;;3.05;100.00;94274.28;5076435;28;20583;-69
2024/02/11 07:23:58;;;;;;;14.80;13.43;;;;;;;3.10;100.00;94272.13;5072616;28;20046;-68
2024/02/11 07:26:24;;;;;;;14.13;12.65;;;;;;;3.06;100.00;94292.38;5068860;28;20342;-68
2024/02/11 07:28:50;;;;;;;14.02;12.48;;;;;;;3.30;100.00;94301.63;5073555;28;20029;-68
2024/02/11 07:31:15;;;;;;;16.65;14.57;;;;;;;3.22;100.00;94304.06;5070003;28;20031;-68
2024/02/11 07:33:42;;;;;;;19.25;17.33;;;;;;;3.28;100.00;94308.75;5076899;28;20024;-68
2024/02/11 07:36:09;;;;;;;20.40;17.70;;;;;;;3.20;100.00;94313.75;5084603;28;20461;-68
2024/02/11 07:38:36;;;;;;;19.33;17.42;;;;;;;3.24;100.00;94315.16;5073196;28;20024;-68
2024/02/11 07:41:02;;;;;;;20.65;18.65;;;;;;;3.25;100.00;94317.63;5079658;28;20024;-68
2024/02/11 07:43:27;;;;;;;21.08;18.98;;;;;;;3.22;100.00;94312.69;5077015;28;20097;-68
2024/02/11 07:45:53;;;;;;;21.73;19.70;;;;;;;3.23;100.00;94309.13;5079471;28;20028;-68
2024/02/11 07:48:21;;;;;;;24.90;22.30;;;;;;;3.23;100.00;94303.94;5075668;28;20052;-68
2024/02/11 07:50:47;;;;;;;17.27;15.48;;;;;;;3.17;100.00;94308.81;5078719;28;20474;-68
2024/02/11 07:53:12;;;;;;;19.70;17.73;;;;;;;3.22;100.00;94307.50;5069854;28;20103;-68
2024/02/11 07:55:37;;;;;;;17.50;15.88;;;;;;;3.25;100.00;94306.41;5074704;28;20029;-68
2024/02/11 07:58:03;;;;;;;17.63;15.88;;;;;;;3.30;100.00;94312.03;5078150;28;20074;-68
2024/02/11 08:00:31;;;;;;;14.57;13.20;;;;;;;3.30;100.00;94307.63;5074422;28;20027;-68
2024/02/11 08:02:57;;;;;;;15.73;14.18;;;;;;;3.38;100.00;94316.59;5069828;28;20104;-68
2024/02/11 08:05:22;;;;;;;16.42;15.02;;;;;;;3.42;100.00;94308.38;5076556;28;20050;-68
2024/02/11 08:07:49;;;;;;;14.40;13.05;;;;;;;3.42;100.00;94320.56;5070205;28;20102;-68
2024/02/11 08:10:15;;;;;;;14.07;12.75;;;;;;;3.53;100.00;94314.44;5076025;28;20034;-67
2024/02/11 08:12:40;;;;;;;14.90;13.50;;;;;;;3.56;100.00;94324.59;5069453;28;20179;-68
2024/02/11 08:15:12;;;;;;;16.38;14.88;;;;;;;3.58;100.00;94317.47;5076446;28;20056;-68
2024/02/11 08:17:39;;;;;;;17.35;15.65;;;;;;;3.62;100.00;94324.03;5069627;28;20024;-68
2024/02/11 08:20:05;;;;;;;14.55;13.35;;;;;;;3.58;100.00;94325.25;5082442;28;20031;-68
2024/02/11 08:22:30;;;;;;;13.80;12.60;;;;;;;3.56;100.00;94322.81;5075402;28;20512;-67
2024/02/11 08:24:56;;;;;;;14.68;13.30;;;;;;;3.60;100.00;94328.56;5071425;28;20100;-67
2024/02/11 08:27:21;;;;;;;14.35;13.15;;;;;;;3.63;100.00;94330.09;5085081;28;20039;-67
2024/02/11 08:29:48;;;;;;;20.95;18.95;;;;;;;3.71;100.00;94331.06;5075281;28;20469;-68
2024/02/11 08:32:13;;;;;;;17.73;16.13;;;;;;;3.79;100.00;94339.97;5072011;28;20024;-68
2024/02/11 08:34:38;;;;;;;15.18;13.63;;;;;;;3.86;100.00;94346.28;5072350;28;20078;-68
2024/02/11 08:37:04;;;;;;;15.27;14.02;;;;;;;3.95;100.00;94350.72;5077062;28;20031;-68
2024/02/11 08:39:29;;;;;;;16.88;15.07;;;;;;;4.35;100.00;94359.38;5073648;28;20039;-68
2024/02/11 08:41:55;;;;;;;16.45;12.93;;;;;;;4.32;100.00;94358.84;5070557;28;20053;-67
2024/02/11 08:44:21;;;;;;;10.27;9.38;;;;;;;4.40;100.00;94374.63;5071938;28;20040;-68
2024/02/11 08:46:47;;;;;;;10.27;9.15;;;;;;;4.22;100.00;94397.94;5073587;28;20425;-67
2024/02/11 08:49:14;;;;;;;12.20;10.07;;;;;;;4.07;100.00;94394.84;5070554;28;20646;-67
2024/02/11 08:51:40;;;;;;;10.30;9.35;;;;;;;4.33;100.00;94412.63;5073555;28;20492;-68
2024/02/11 08:54:05;;;;;;;15.45;14.07;;;;;;;4.13;100.00;94410.78;5075535;28;20029;-68
2024/02/11 08:56:31;;;;;;;12.95;11.73;;;;;;;4.03;100.00;94420.38;5069270;28;20119;-68
2024/02/11 08:58:56;;;;;;;13.02;11.73;;;;;;;4.05;100.00;94420.22;5070459;28;20024;-68
2024/02/11 09:01:22;;;;;;;12.93;11.75;;;;;;;4.03;100.00;94420.38;5072961;28;20066;-68
2024/02/11 09:03:47;;;;;;;14.23;12.75;;;;;;;4.09;100.00;94430.25;5075919;28;20024;-68
2024/02/11 09:06:12;;;;;;;15.80;14.38;;;;;;;4.21;100.00;94430.16;5072355;28;20397;-68
2024/02/11 09:08:38;;;;;;;16.83;15.00;;;;;;;4.33;100.00;94433.47;5076900;28;20044;-68
2024/02/11 09:11:06;;;;;;;16.48;14.98;;;;;;;4.46;100.00;94436.63;5076505;28;20029;-67
2024/02/11 09:13:34;;;;;;;11.98;10.80;;;;;;;4.40;100.00;94431.97;5067893;28;20031;-68
2024/02/11 09:16:00;;;;;;;16.35;14.85;;;;;;;4.37;100.00;94440.03;5075790;28;20552;-67
2024/02/11 09:18:25;;;;;;;16.15;13.98;;;;;;;4.41;100.00;94446.63;5080565;28;20074;-68
2024/02/11 09:20:51;;;;;;;15.38;14.07;;;;;;;4.52;100.00;94446.50;5077568;28;20033;-68
2024/02/11 09:23:17;;;;;;;19.35;17.55;;;;;;;4.55;100.00;94448.84;5075271;28;20030;-68
2024/02/11 09:25:42;;;;;;;16.65;15.25;;;;;;;4.68;100.00;94450.38;5063761;28;20126;-68
2024/02/11 09:28:08;;;;;;;16.88;15.50;;;;;;;4.75;100.00;94446.25;5077221;28;20055;-68
2024/02/11 09:30:33;;;;;;;14.73;13.45;;;;;;;4.84;100.00;94458.47;5072455;28;20025;-68
2024/02/11 09:32:58;;;;;;;12.93;11.57;;;;;;;4.94;100.00;94455.03;5068982;28;20021;-68
2024/02/11 09:35:24;;;;;;;10.30;9.32;;;;;;;4.95;100.00;94467.94;5071596;28;20023;-68
2024/02/11 09:37:49;;;;;;;11.48;10.07;;;;;;;4.90;100.00;94459.72;5079958;28;20074;-68
2024/02/11 09:40:15;;;;;;;14.63;13.38;;;;;;;4.92;100.00;94436.94;5076605;28;20024;-68
2024/02/11 09:42:45;;;;;;;10.88;9.88;;;;;;;5.07;100.00;94441.69;5072886;28;20728;-69
2024/02/11 09:45:15;;;;;;;12.57;11.55;;;;;;;5.13;100.00;94438.56;5069892;28;20059;-68
2024/02/11 09:47:43;;;;;;;13.73;12.52;;;;;;;5.22;100.00;94450.75;5070031;28;20389;-68
2024/02/11 09:50:11;;;;;;;12.30;11.23;;;;;;;5.36;100.00;94448.69;5080752;28;20032;-68
2024/02/11 09:52:38;;;;;;;13.02;11.82;;;;;;;5.41;100.00;94442.06;5070452;28;20021;-68
2024/02/11 09:55:06;;;;;;;13.23;12.02;;;;;;;5.44;100.00;94447.03;5078733;28;20020;-68
2024/02/11 09:57:31;;;;;;;11.48;10.48;;;;;;;5.70;100.00;94450.78;5069179;28;20085;-68
2024/02/11 09:59:56;;;;;;;12.90;11.80;;;;;;;5.60;100.00;94445.59;5070729;28;20495;-68
2024/02/11 10:02:23;;;;;;;11.32;9.77;;;;;;;5.62;100.00;94441.03;5069520;27;20009;-68
2024/02/11 10:04:53;;;;;;;11.68;10.57;;;;;;;5.70;100.00;94443.78;5072584;28;20025;-68
2024/02/11 10:07:24;;;;;;;13.48;12.18;;;;;;;5.76;100.00;94442.41;5067921;28;20058;-68
2024/02/11 10:09:51;;;;;;;11.63;10.52;;;;;;;5.97;100.00;94450.00;5067017;28;20472;-68
2024/02/11 10:12:20;;;;;;;12.55;11.43;;;;;;;6.16;100.00;94445.69;5064572;28;20480;-68
2024/02/11 10:14:57;;;;;;;10.85;9.85;;;;;;;6.37;100.00;94442.00;5069832;28;20029;-68
2024/02/11 10:17:23;;;;;;;11.48;10.55;;;;;;;6.56;100.00;94443.66;5067326;28;20033;-68
2024/02/11 10:19:51;;;;;;;11.98;10.88;;;;;;;6.51;100.00;94438.06;5077442;28;20028;-68
2024/02/11 10:22:18;;;;;;;10.25;9.30;;;;;;;6.38;100.00;94446.25;5071139;28;20110;-68
2024/02/11 10:24:51;;;;;;;10.85;9.85;;;;;;;6.45;100.00;94450.75;5073811;28;20021;-68
2024/02/11 10:27:17;;;;;;;12.05;11.02;;;;;;;6.36;100.00;94450.81;5064442;28;20070;-68
2024/02/11 10:29:44;;;;;;;15.55;13.57;;;;;;;6.53;100.00;94452.66;5067171;28;20025;-68
2024/02/11 10:32:14;;;;;;;18.88;17.00;;;;;;;6.63;100.00;94462.22;5075658;28;20021;-68
2024/02/11 10:34:41;;;;;;;15.82;14.27;;;;;;;6.66;100.00;94456.69;5068993;28;20043;-68
2024/02/11 10:37:06;;;;;;;16.40;14.88;;;;;;;6.66;100.00;94454.91;5066232;28;20052;-69
2024/02/11 10:39:36;;;;;;;14.27;13.07;;;;;;;6.50;100.00;94465.19;5067888;28;20107;-68
2024/02/11 10:42:02;;;;;;;14.90;13.60;;;;;;;6.23;100.00;94483.34;5066769;28;20146;-68
2024/02/11 10:44:27;;;;;;;13.95;12.60;;;;;;;6.15;100.00;94491.09;5071956;28;20107;-68
2024/02/11 10:46:55;;;;;;;14.45;13.05;;;;;;;6.10;100.00;94496.75;5069912;28;20111;-68
2024/02/11 10:49:20;;;;;;;12.50;11.38;;;;;;;6.01;100.00;94505.44;5066888;28;20021;-68
2024/02/11 10:51:52;;;;;;;11.55;10.52;;;;;;;5.99;100.00;94509.97;5062370;28;20874;-68
2024/02/11 10:54:18;;;;;;;13.02;11.82;;;;;;;5.99;100.00;94505.53;5065751;28;20677;-68
2024/02/11 10:56:44;;;;;;;12.88;11.68;;;;;;;6.20;100.00;94516.81;5070746;28;20024;-68
2024/02/11 10:59:16;;;;;;;14.18;12.98;;;;;;;6.27;100.00;94516.06;5069645;28;20024;-68
2024/02/11 11:01:43;;;;;;;14.73;13.32;;;;;;;6.27;100.00;94518.66;5070270;28;20016;-68
2024/02/11 11:04:14;;;;;;;22.80;20.67;;;;;;;6.13;100.00;94524.38;5067177;28;20039;-68
2024/02/11 11:06:41;;;;;;;14.95;13.60;;;;;;;6.31;100.00;94527.06;5067041;28;20021;-68
2024/02/11 11:09:07;;;;;;;14.73;13.25;;;;;;;6.45;100.00;94533.59;5073788;28;20028;-69
2024/02/11 11:11:32;;;;;;;12.80;11.57;;;;;;;6.51;100.00;94527.78;5066150;28;20039;-68
2024/02/11 11:14:07;;;;;;;16.48;15.07;;;;;;;6.49;100.00;94529.72;5066396;28;20025;-68
2024/02/11 11:16:35;;;;;;;11.60;10.45;;;;;;;6.45;100.00;94528.38;5061204;28;20028;-68
2024/02/11 11:19:15;;;;;;;13.48;12.23;;;;;;;6.51;100.00;94517.31;5065066;28;20087;-68